Time;durP1;ratioP1;P1;durP2;ratioP2;P2;SDS_P1;SDS_P2;PMS_P1;PMS_P2;Temp;Humidity;BMP_temperature;BMP_pressure;BME280_temperature;BME280_humidity;BME280_pressure;Samples;Min_cycle;Max_cycle;Signal;HPM_P1;HPM_P2
2023/05/05 00:02:14;;;;;;;4.13;2.60;;;16.30;96.60;;;;;;5051259;28;20499;-49
2023/05/05 00:04:40;;;;;;;3.00;2.47;;;16.20;96.40;;;;;;5051431;28;20025;-49
2023/05/05 00:07:05;;;;;;;3.42;3.13;;;16.10;96.40;;;;;;5051568;28;20449;-50
2023/05/05 00:09:31;;;;;;;4.65;3.00;;;16.00;96.90;;;;;;5051520;28;20095;-48
2023/05/05 00:11:56;;;;;;;4.50;3.10;;;15.90;97.20;;;;;;5051320;28;20025;-47
2023/05/05 00:14:22;;;;;;;3.38;3.03;;;15.90;97.70;;;;;;5050882;28;20025;-49
2023/05/05 00:16:47;;;;;;;2.50;2.30;;;15.90;98.10;;;;;;5051255;28;20060;-51
2023/05/05 00:19:13;;;;;;;6.97;3.10;;;15.90;98.40;;;;;;5052008;28;20025;-48
2023/05/05 00:21:38;;;;;;;5.80;3.10;;;15.80;98.70;;;;;;5033475;28;20116;-48
2023/05/05 00:24:04;;;;;;;3.08;2.83;;;15.80;98.70;;;;;;5051098;28;20037;-51
2023/05/05 00:26:30;;;;;;;4.82;3.03;;;15.70;99.00;;;;;;5051289;28;20527;-51
2023/05/05 00:28:56;;;;;;;4.68;3.30;;;15.70;99.20;;;;;;5051215;28;20312;-47
2023/05/05 00:31:21;;;;;;;3.92;3.00;;;15.70;99.30;;;;;;5051022;28;20434;-45
2023/05/05 00:33:47;;;;;;;11.15;4.38;;;15.60;99.40;;;;;;5050958;28;20025;-48
2023/05/05 00:36:13;;;;;;;4.10;2.95;;;15.60;99.70;;;;;;5051201;28;20029;-46
2023/05/05 00:38:39;;;;;;;11.50;3.08;;;15.50;99.90;;;;;;5051217;28;20422;-46
2023/05/05 00:41:04;;;;;;;4.65;3.47;;;15.50;99.90;;;;;;5033158;28;20075;-46
2023/05/05 00:43:30;;;;;;;13.23;3.25;;;15.40;99.90;;;;;;5050926;28;20202;-48
2023/05/05 00:46:10;;;;;;;3.95;2.83;;;15.40;99.90;;;;;;5050802;28;20075;-50
2023/05/05 00:48:36;;;;;;;6.32;3.53;;;15.50;99.90;;;;;;5051006;28;20021;-48
2023/05/05 00:51:02;;;;;;;6.90;3.25;;;15.40;99.90;;;;;;5051026;28;20028;-48
2023/05/05 00:53:27;;;;;;;9.05;3.65;;;15.40;99.90;;;;;;5051225;28;20385;-49
2023/05/05 00:55:53;;;;;;;6.63;3.83;;;15.40;99.90;;;;;;5054733;28;20040;-44
2023/05/05 00:58:19;;;;;;;4.85;3.10;;;15.40;99.90;;;;;;5054945;28;20432;-47
2023/05/05 01:00:44;;;;;;;4.30;3.03;;;15.50;99.90;;;;;;5055019;28;20091;-44
2023/05/05 01:03:14;;;;;;;7.90;3.55;;;15.50;99.90;;;;;;5054516;28;20033;-46
2023/05/05 01:06:19;;;;;;;6.30;3.70;;;15.50;99.90;;;;;;5054681;28;20060;-46
2023/05/05 01:09:04;;;;;;;3.88;3.45;;;15.50;99.90;;;;;;5014750;28;20047;-46
2023/05/05 01:11:50;;;;;;;6.10;4.03;;;15.50;99.90;;;;;;5054563;28;20040;-46
2023/05/05 01:14:19;;;;;;;5.38;3.85;;;15.50;99.90;;;;;;5054421;28;20410;-47
2023/05/05 01:16:53;;;;;;;8.18;4.30;;;15.50;99.90;;;;;;5054541;28;20400;-47
2023/05/05 01:19:58;;;;;;;5.28;3.75;;;15.50;99.90;;;;;;5054420;28;20029;-47
2023/05/05 01:22:27;;;;;;;6.63;4.13;;;15.50;99.90;;;;;;5054803;28;20427;-46
2023/05/05 01:25:16;;;;;;;5.85;3.97;;;15.40;99.90;;;;;;5054226;28;20043;-45
2023/05/05 01:28:00;;;;;;;9.68;4.97;;;15.40;99.90;;;;;;5054957;28;20423;-48
2023/05/05 01:31:07;;;;;;;6.20;4.82;;;15.30;99.90;;;;;;5054201;28;20217;-47
2023/05/05 01:33:41;;;;;;;5.88;4.32;;;15.10;99.90;;;;;;5054383;28;20416;-48
2023/05/05 01:36:21;;;;;;;10.10;4.82;;;15.10;99.90;;;;;;5054266;28;20417;-49
2023/05/05 01:38:55;;;;;;;9.65;5.85;;;15.10;99.90;;;;;;5054717;28;20467;-46
2023/05/05 01:41:27;;;;;;;4.72;4.22;;;15.00;99.90;;;;;;5054130;28;20054;-50
2023/05/05 01:43:55;;;;;;;6.88;4.85;;;15.00;99.90;;;;;;5054097;28;20025;-47
2023/05/05 01:46:23;;;;;;;7.28;4.05;;;15.00;99.90;;;;;;5053889;28;20024;-49
2023/05/05 01:48:51;;;;;;;7.75;4.68;;;14.90;99.90;;;;;;5055192;28;20027;-51
2023/05/05 01:51:18;;;;;;;5.43;3.70;;;14.90;99.90;;;;;;5055297;28;20054;-47
2023/05/05 01:53:45;;;;;;;5.55;4.13;;;14.80;99.90;;;;;;5053929;28;20036;-51
2023/05/05 01:56:12;;;;;;;7.03;4.60;;;14.70;99.90;;;;;;5053938;28;20412;-48
2023/05/05 01:58:40;;;;;;;6.80;4.10;;;14.70;99.90;;;;;;5054038;28;20029;-50
2023/05/05 02:01:06;;;;;;;8.52;4.10;;;14.60;99.90;;;;;;5053734;28;20024;-49
2023/05/05 02:03:34;;;;;;;5.47;4.53;;;14.50;99.90;;;;;;5053810;28;20414;-49
2023/05/05 02:06:01;;;;;;;4.53;4.13;;;14.40;99.90;;;;;;5053283;28;20021;-46
2023/05/05 02:08:28;;;;;;;11.93;4.60;;;14.30;99.90;;;;;;5054309;28;20420;-47
2023/05/05 02:10:54;;;;;;;11.93;4.85;;;14.30;99.90;;;;;;5053447;28;20024;-47
2023/05/05 02:13:23;;;;;;;5.10;4.10;;;14.30;99.90;;;;;;5053477;28;20060;-49
2023/05/05 02:15:50;;;;;;;11.52;4.85;;;14.30;99.90;;;;;;5053216;28;20033;-48
2023/05/05 02:18:16;;;;;;;7.10;5.03;;;14.30;99.90;;;;;;5053337;28;20074;-49
2023/05/05 02:20:42;;;;;;;6.80;4.38;;;14.30;99.90;;;;;;5053100;28;20029;-46
2023/05/05 02:23:08;;;;;;;6.75;4.68;;;14.30;99.90;;;;;;5053186;28;20032;-46
2023/05/05 02:25:38;;;;;;;6.03;4.63;;;14.40;99.90;;;;;;5053137;28;20025;-51
2023/05/05 02:28:12;;;;;;;5.97;4.35;;;14.30;99.90;;;;;;5053048;28;20025;-47
2023/05/05 02:30:39;;;;;;;5.72;4.78;;;14.30;99.90;;;;;;5052949;28;20029;-50
2023/05/05 02:33:11;;;;;;;5.95;4.57;;;14.40;99.90;;;;;;5052972;28;20025;-49
2023/05/05 02:35:41;;;;;;;5.63;4.22;;;14.40;99.90;;;;;;5035206;28;20042;-47
2023/05/05 02:38:16;;;;;;;5.45;4.95;;;14.40;99.90;;;;;;5052869;28;20052;-49
2023/05/05 02:40:43;;;;;;;9.77;5.10;;;14.40;99.90;;;;;;5052938;28;20424;-49
2023/05/05 02:43:13;;;;;;;5.72;4.90;;;14.30;99.90;;;;;;5052814;28;20060;-47
2023/05/05 02:45:39;;;;;;;5.85;4.30;;;14.20;99.90;;;;;;5052635;28;20028;-50
2023/05/05 02:48:05;;;;;;;11.73;5.28;;;14.20;99.90;;;;;;5052732;28;20416;-46
2023/05/05 02:50:31;;;;;;;7.70;5.07;;;14.10;99.90;;;;;;5052651;28;20025;-49
2023/05/05 02:52:58;;;;;;;9.88;5.25;;;14.10;99.90;;;;;;5052674;28;20056;-49
2023/05/05 02:55:26;;;;;;;9.80;5.90;;;14.10;99.90;;;;;;5052691;28;20052;-50
2023/05/05 02:58:02;;;;;;;6.13;4.78;;;14.20;99.90;;;;;;5052363;28;20021;-49
2023/05/05 03:00:39;;;;;;;10.05;5.70;;;14.10;99.90;;;;;;5052466;28;20029;-50
2023/05/05 03:03:12;;;;;;;6.47;5.20;;;13.90;99.90;;;;;;5052579;28;20047;-49
2023/05/05 03:06:06;;;;;;;6.60;4.88;;;13.90;99.90;;;;;;5052570;28;20397;-49
2023/05/05 03:08:42;;;;;;;6.63;5.57;;;13.90;99.90;;;;;;5052343;28;20036;-47
2023/05/05 03:11:15;;;;;;;7.80;4.97;;;13.80;99.90;;;;;;5034307;28;20025;-48
2023/05/05 03:13:42;;;;;;;5.60;5.00;;;13.70;99.90;;;;;;5052182;28;20025;-51
2023/05/05 03:16:09;;;;;;;11.43;6.07;;;13.70;99.90;;;;;;5051253;28;20025;-47
2023/05/05 03:18:37;;;;;;;6.70;6.10;;;13.70;99.90;;;;;;5034245;28;20059;-50
2023/05/05 03:21:07;;;;;;;8.13;5.55;;;13.70;99.90;;;;;;5051943;28;20032;-48
2023/05/05 03:23:34;;;;;;;6.32;5.72;;;13.70;99.90;;;;;;5051800;28;20052;-48
2023/05/05 03:26:00;;;;;;;8.43;5.50;;;13.60;99.90;;;;;;5051963;28;20028;-46
2023/05/05 03:28:25;;;;;;;7.95;6.03;;;13.60;99.90;;;;;;5051973;28;20086;-48
2023/05/05 03:30:51;;;;;;;13.38;5.80;;;13.60;99.90;;;;;;5051895;28;20157;-49
2023/05/05 03:33:17;;;;;;;10.02;6.18;;;13.50;99.90;;;;;;5051665;28;20032;-48
2023/05/05 03:35:43;;;;;;;8.63;5.75;;;13.50;99.90;;;;;;5051949;28;20086;-46
2023/05/05 03:38:08;;;;;;;10.88;5.90;;;13.40;99.90;;;;;;5051733;28;20120;-48
2023/05/05 03:40:34;;;;;;;6.50;5.82;;;13.30;99.90;;;;;;5051691;28;20187;-46
2023/05/05 03:42:59;;;;;;;7.35;5.07;;;13.30;99.90;;;;;;5051663;28;20086;-48
2023/05/05 03:45:25;;;;;;;11.52;5.93;;;13.30;99.90;;;;;;5051629;28;20028;-47
2023/05/05 03:47:50;;;;;;;10.63;5.90;;;13.30;99.90;;;;;;5051509;28;20095;-48
2023/05/05 03:50:16;;;;;;;6.95;6.25;;;13.30;99.90;;;;;;5051490;28;20036;-47
2023/05/05 03:52:41;;;;;;;8.00;5.80;;;13.40;99.90;;;;;;5051567;28;20028;-49
2023/05/05 03:55:07;;;;;;;7.75;5.35;;;13.30;99.90;;;;;;5051470;28;20108;-47
2023/05/05 03:57:33;;;;;;;10.77;6.05;;;13.40;99.90;;;;;;5051389;28;20511;-49
2023/05/05 03:59:59;;;;;;;6.85;6.15;;;13.40;99.90;;;;;;5051427;28;20036;-45
2023/05/05 04:02:24;;;;;;;13.60;7.53;;;13.40;99.90;;;;;;5051361;28;20559;-49
2023/05/05 04:04:50;;;;;;;7.10;6.38;;;13.40;99.90;;;;;;5051299;28;20060;-50
2023/05/05 04:07:16;;;;;;;7.78;6.47;;;13.50;99.90;;;;;;5051307;28;20100;-47
2023/05/05 04:09:43;;;;;;;8.70;6.85;;;13.50;99.90;;;;;;5051393;28;20029;-46
2023/05/05 04:12:12;;;;;;;7.63;6.65;;;13.60;99.90;;;;;;5051213;28;20091;-48
2023/05/05 04:14:38;;;;;;;8.10;6.28;;;13.60;99.90;;;;;;5050934;28;20036;-47
2023/05/05 04:17:05;;;;;;;8.13;5.45;;;13.70;99.90;;;;;;5051183;28;20488;-47
2023/05/05 04:19:33;;;;;;;7.72;5.45;;;13.60;99.90;;;;;;5051405;28;20060;-48
2023/05/05 04:21:59;;;;;;;9.63;5.75;;;13.70;99.90;;;;;;5051153;28;20033;-50
2023/05/05 04:24:25;;;;;;;6.57;5.30;;;13.70;99.90;;;;;;5051034;28;20083;-49
2023/05/05 04:26:51;;;;;;;7.43;5.68;;;13.70;99.90;;;;;;5050976;28;20033;-47
2023/05/05 04:29:17;;;;;;;8.15;5.78;;;13.70;99.90;;;;;;5054606;28;20119;-48
2023/05/05 04:31:43;;;;;;;7.30;6.20;;;13.70;99.90;;;;;;5055477;28;20368;-50
2023/05/05 04:34:08;;;;;;;5.93;5.32;;;13.70;99.90;;;;;;5055068;28;20037;-45
2023/05/05 04:36:34;;;;;;;10.38;7.40;;;13.70;99.90;;;;;;5055186;28;20025;-47
2023/05/05 04:38:59;;;;;;;9.55;6.95;;;13.70;99.90;;;;;;5055103;28;20121;-50
2023/05/05 04:41:25;;;;;;;9.60;6.97;;;13.80;99.90;;;;;;5054895;28;20033;-50
2023/05/05 04:43:52;;;;;;;11.07;7.55;;;13.90;99.90;;;;;;5054817;28;20029;-47
2023/05/05 04:46:17;;;;;;;9.38;7.53;;;14.00;99.90;;;;;;5054936;28;20032;-50
2023/05/05 04:48:43;;;;;;;11.05;7.43;;;14.20;99.90;;;;;;5055059;28;20021;-47
2023/05/05 04:51:09;;;;;;;8.85;7.82;;;14.40;99.90;;;;;;5054835;28;20110;-51
2023/05/05 04:53:34;;;;;;;9.15;6.95;;;14.70;99.90;;;;;;5054797;28;20037;-48
2023/05/05 04:56:00;;;;;;;15.25;7.70;;;14.80;99.90;;;;;;5055192;28;20029;-48
2023/05/05 04:58:26;;;;;;;8.30;6.85;;;14.80;99.90;;;;;;5054757;28;20553;-46
2023/05/05 05:00:52;;;;;;;12.70;7.25;;;14.90;99.90;;;;;;5054645;28;20061;-46
2023/05/05 05:03:17;;;;;;;9.80;7.70;;;15.30;99.90;;;;;;5054541;28;20052;-46
2023/05/05 05:05:43;;;;;;;11.05;7.47;;;15.60;99.90;;;;;;5054743;28;20032;-46
2023/05/05 05:08:09;;;;;;;8.65;7.50;;;15.70;99.90;;;;;;5054408;28;20029;-49
2023/05/05 05:10:34;;;;;;;20.17;7.65;;;15.70;99.90;;;;;;5054332;28;20559;-48
2023/05/05 05:13:00;;;;;;;10.00;8.20;;;15.50;99.90;;;;;;5054735;28;20044;-47
2023/05/05 05:15:26;;;;;;;11.05;8.05;;;15.40;99.90;;;;;;5054055;28;20039;-46
2023/05/05 05:17:51;;;;;;;12.63;8.73;;;15.30;99.90;;;;;;5054460;28;20025;-48
2023/05/05 05:20:17;;;;;;;16.83;7.68;;;15.30;99.90;;;;;;5054437;28;20082;-48
2023/05/05 05:22:43;;;;;;;11.05;8.43;;;15.30;99.90;;;;;;5054273;28;20024;-49
2023/05/05 05:25:08;;;;;;;9.00;8.10;;;15.20;99.90;;;;;;5054330;28;20020;-50
2023/05/05 05:27:34;;;;;;;12.80;7.95;;;15.30;99.90;;;;;;5054462;28;20027;-46
2023/05/05 05:29:59;;;;;;;12.10;7.43;;;15.30;99.90;;;;;;5054075;28;20037;-46
2023/05/05 05:32:25;;;;;;;11.85;8.57;;;15.30;99.90;;;;;;5054214;28;20021;-46
2023/05/05 05:34:51;;;;;;;11.57;7.30;;;15.50;99.90;;;;;;5054367;28;20036;-47
2023/05/05 05:37:16;;;;;;;8.40;7.53;;;16.00;99.90;;;;;;5054192;28;20022;-48
2023/05/05 05:39:42;;;;;;;7.90;7.00;;;16.80;99.90;;;;;;5053617;28;20025;-48
2023/05/05 05:42:07;;;;;;;9.10;7.97;;;17.70;99.90;;;;;;5053886;28;20021;-47
2023/05/05 05:44:33;;;;;;;9.02;7.47;;;18.30;99.90;;;;;;5053650;28;20112;-47
2023/05/05 05:46:58;;;;;;;11.55;7.90;;;18.70;99.90;;;;;;5053941;28;20021;-47
2023/05/05 05:49:24;;;;;;;8.13;7.22;;;18.70;99.90;;;;;;5053804;28;20021;-46
2023/05/05 05:51:49;;;;;;;8.05;7.20;;;18.30;99.90;;;;;;5053693;28;20331;-46
2023/05/05 05:54:15;;;;;;;12.38;7.70;;;18.10;99.90;;;;;;5053884;28;20021;-46
2023/05/05 05:56:40;;;;;;;13.07;7.32;;;18.10;99.90;;;;;;5053572;28;20022;-52
2023/05/05 05:59:07;;;;;;;10.30;7.35;;;18.60;99.90;;;;;;5103353;22;20077;-54
2023/05/05 06:01:34;;;;;;;6.72;6.13;;;19.20;99.90;;;;;;5088090;28;20047;-54
2023/05/05 06:04:00;;;;;;;8.10;5.93;;;20.30;99.90;;;;;;5106997;28;20027;-55
2023/05/05 06:06:26;;;;;;;7.05;5.80;;;21.30;99.70;;;;;;5088352;28;20043;-56
2023/05/05 06:08:52;;;;;;;7.32;5.72;;;22.30;98.10;;;;;;5096970;28;20036;-54
2023/05/05 06:11:17;;;;;;;13.77;6.70;;;22.80;96.80;;;;;;5086248;28;20029;-56
2023/05/05 06:13:43;;;;;;;7.10;5.85;;;23.00;96.30;;;;;;5086472;28;20024;-57
2023/05/05 06:16:08;;;;;;;10.27;7.55;;;23.40;96.30;;;;;;5086285;28;20080;-54
2023/05/05 06:18:34;;;;;;;7.10;5.80;;;23.80;95.10;;;;;;5069021;28;20035;-55
2023/05/05 06:21:00;;;;;;;8.13;6.65;;;24.30;94.60;;;;;;5086783;28;20021;-57
2023/05/05 06:23:26;;;;;;;8.50;5.78;;;24.70;94.00;;;;;;5068921;28;20024;-58
2023/05/05 06:25:53;;;;;;;6.03;5.25;;;25.20;93.10;;;;;;5086785;28;20031;-56
2023/05/05 06:28:19;;;;;;;9.88;5.93;;;25.30;92.60;;;;;;5086698;28;20017;-57
2023/05/05 06:30:44;;;;;;;6.50;5.85;;;25.50;92.60;;;;;;5069718;28;20042;-55
2023/05/05 06:33:10;;;;;;;14.40;6.35;;;25.40;91.80;;;;;;5084805;28;20038;-57
2023/05/05 06:35:35;;;;;;;9.82;6.97;;;25.00;92.50;;;;;;5078154;28;20020;-50
2023/05/05 06:38:01;;;;;;;14.88;6.60;;;24.70;93.20;;;;;;5077677;28;20488;-58
2023/05/05 06:40:26;;;;;;;16.35;7.88;;;24.70;93.30;;;;;;5068764;28;20035;-56
2023/05/05 06:42:52;;;;;;;8.25;6.22;;;24.90;92.90;;;;;;5087044;28;20051;-59
2023/05/05 06:45:17;;;;;;;9.00;6.35;;;24.90;92.70;;;;;;5065167;28;20411;-50
2023/05/05 06:47:43;;;;;;;10.70;6.57;;;25.10;93.00;;;;;;5064739;28;20021;-58
2023/05/05 06:50:09;;;;;;;7.35;6.65;;;25.50;92.60;;;;;;5086829;28;20036;-57
2023/05/05 06:52:34;;;;;;;7.57;6.13;;;25.30;92.20;;;;;;5085187;28;20020;-56
2023/05/05 06:55:00;;;;;;;8.52;6.07;;;25.00;92.80;;;;;;5078446;28;20030;-53
2023/05/05 06:57:25;;;;;;;6.45;5.43;;;25.10;92.70;;;;;;5106081;28;20103;-53
2023/05/05 06:59:52;;;;;;;5.70;5.15;;;25.40;92.30;;;;;;5088495;28;20116;-52
2023/05/05 07:02:18;;;;;;;8.93;5.35;;;25.90;91.90;;;;;;5087284;28;20032;-54
2023/05/05 07:04:43;;;;;;;9.63;5.50;;;26.00;91.40;;;;;;5074788;28;20161;-53
2023/05/05 07:07:09;;;;;;;11.25;5.75;;;26.50;90.90;;;;;;5082811;28;20020;-58
2023/05/05 07:09:34;;;;;;;11.05;5.53;;;26.30;90.90;;;;;;5084389;28;20052;-57
2023/05/05 07:12:00;;;;;;;6.88;5.50;;;26.30;90.80;;;;;;5084663;28;20429;-58
2023/05/05 07:14:26;;;;;;;7.45;4.85;;;26.20;90.80;;;;;;5085517;28;20025;-59
2023/05/05 07:16:52;;;;;;;11.15;5.30;;;26.60;90.50;;;;;;5085884;28;20046;-53
2023/05/05 07:19:17;;;;;;;12.38;4.53;;;27.20;90.50;;;;;;5083247;28;20039;-55
2023/05/05 07:21:43;;;;;;;7.93;4.85;;;28.10;89.40;;;;;;5077340;28;20024;-51
2023/05/05 07:24:08;;;;;;;5.63;4.30;;;28.50;86.70;;;;;;5078539;28;20089;-56
2023/05/05 07:26:34;;;;;;;4.90;4.32;;;29.00;87.00;;;;;;5078574;28;20059;-53
2023/05/05 07:29:01;;;;;;;7.03;4.03;;;29.60;84.90;;;;;;5084260;28;20021;-53
2023/05/05 07:31:26;;;;;;;4.40;4.00;;;29.90;84.00;;;;;;5083730;28;20048;-56
2023/05/05 07:33:52;;;;;;;4.80;4.45;;;29.70;82.90;;;;;;5066521;28;20047;-57
2023/05/05 07:36:18;;;;;;;4.22;3.83;;;29.40;82.70;;;;;;5065499;28;20028;-53
2023/05/05 07:38:43;;;;;;;3.90;3.50;;;28.70;83.90;;;;;;5082723;28;20128;-56
2023/05/05 07:41:11;;;;;;;9.88;4.00;;;28.50;85.50;;;;;;5065204;28;20034;-55
2023/05/05 07:43:39;;;;;;;5.18;3.80;;;28.80;84.50;;;;;;5081805;28;20020;-52
2023/05/05 07:46:05;;;;;;;4.65;3.35;;;28.90;83.50;;;;;;5082699;28;20027;-53
2023/05/05 07:48:30;;;;;;;4.13;3.78;;;29.10;84.10;;;;;;5082621;28;20473;-56
2023/05/05 07:50:56;;;;;;;5.97;3.10;;;29.10;83.70;;;;;;5081002;28;20041;-49
2023/05/05 07:53:21;;;;;;;6.95;3.67;;;28.70;84.20;;;;;;5081039;28;20028;-51
2023/05/05 07:55:47;;;;;;;5.20;3.75;;;28.50;84.00;;;;;;5080654;28;20396;-52
2023/05/05 07:58:12;;;;;;;5.43;3.38;;;28.70;84.80;;;;;;5081022;28;20071;-49
2023/05/05 08:00:38;;;;;;;5.95;3.90;;;28.50;85.30;;;;;;5080839;28;20032;-48
2023/05/05 08:03:04;;;;;;;5.75;3.72;;;27.70;85.50;;;;;;5080192;28;20027;-54
2023/05/05 08:05:29;;;;;;;5.38;3.80;;;26.70;88.70;;;;;;5080384;28;20020;-55
2023/05/05 08:07:55;;;;;;;6.75;3.80;;;25.70;90.60;;;;;;5079927;28;20042;-56
2023/05/05 08:10:21;;;;;;;4.68;4.05;;;25.10;91.80;;;;;;5078725;28;20095;-52
2023/05/05 08:12:47;;;;;;;10.82;4.05;;;24.70;92.20;;;;;;5061477;28;20028;-51
2023/05/05 08:15:12;;;;;;;4.95;3.90;;;24.40;93.10;;;;;;5079401;28;20090;-51
2023/05/05 08:17:46;;;;;;;7.93;3.58;;;24.20;94.00;;;;;;5080221;28;20028;-52
2023/05/05 08:20:12;;;;;;;4.63;4.18;;;24.60;93.90;;;;;;5080602;28;20067;-54
2023/05/05 08:22:37;;;;;;;11.13;4.05;;;25.60;93.00;;;;;;5080943;28;20029;-53
2023/05/05 08:25:03;;;;;;;3.20;2.88;;;26.60;91.60;;;;;;5082573;28;20029;-50
2023/05/05 08:27:29;;;;;;;3.30;3.00;;;27.90;90.70;;;;;;5082602;28;20029;-53
2023/05/05 08:29:54;;;;;;;4.35;3.63;;;29.30;90.10;;;;;;5063875;28;20447;-55
2023/05/05 08:32:20;;;;;;;3.63;3.33;;;29.80;84.80;;;;;;5082380;28;20045;-54
2023/05/05 08:34:45;;;;;;;9.55;4.15;;;29.70;85.00;;;;;;5064925;28;20025;-53
2023/05/05 08:37:11;;;;;;;7.10;3.88;;;29.60;85.00;;;;;;5081941;28;20039;-50
2023/05/05 08:39:36;;;;;;;4.65;3.45;;;29.20;85.80;;;;;;5063584;28;20036;-55
2023/05/05 08:42:02;;;;;;;5.53;3.35;;;29.10;86.10;;;;;;5081951;28;20080;-52
2023/05/05 08:44:27;;;;;;;5.40;3.67;;;29.10;85.80;;;;;;5080650;28;20029;-54
2023/05/05 08:47:05;;;;;;;4.00;3.60;;;28.70;86.30;;;;;;5062209;28;20063;-55
2023/05/05 08:49:42;;;;;;;3.78;3.33;;;28.30;87.70;;;;;;5062890;28;20049;-54
2023/05/05 08:52:12;;;;;;;11.70;3.67;;;28.20;88.50;;;;;;5062828;28;20104;-50
2023/05/05 08:54:45;;;;;;;9.63;3.83;;;27.80;88.80;;;;;;5079478;28;20025;-55
2023/05/05 08:57:13;;;;;;;5.60;3.70;;;27.30;90.30;;;;;;5079125;28;20099;-54
2023/05/05 08:59:40;;;;;;;3.90;3.60;;;27.00;90.60;;;;;;5080022;28;20063;-55
2023/05/05 09:02:07;;;;;;;7.20;3.67;;;26.90;91.30;;;;;;5079761;28;20021;-56
2023/05/05 09:04:33;;;;;;;6.43;2.97;;;26.90;91.60;;;;;;5062355;28;20025;-53
2023/05/05 09:06:59;;;;;;;8.57;5.85;;;27.00;91.10;;;;;;5080108;28;20031;-52
2023/05/05 09:09:26;;;;;;;10.35;9.18;;;26.90;91.10;;;;;;5062730;28;20021;-53
2023/05/05 09:11:53;;;;;;;8.23;4.38;;;26.70;91.20;;;;;;5079799;28;20021;-56
2023/05/05 09:14:19;;;;;;;5.22;3.92;;;26.40;91.60;;;;;;5079510;28;20048;-54
2023/05/05 09:16:44;;;;;;;8.35;4.45;;;26.20;92.20;;;;;;5082482;28;20051;-56
2023/05/05 09:19:10;;;;;;;6.68;3.72;;;25.80;92.70;;;;;;5083970;28;20067;-54
2023/05/05 09:21:45;;;;;;;6.30;3.88;;;26.00;92.50;;;;;;5074991;28;20028;-46
2023/05/05 09:24:12;;;;;;;5.68;4.28;;;26.00;92.70;;;;;;5074765;28;20395;-48
2023/05/05 09:26:43;;;;;;;5.07;3.95;;;26.30;92.60;;;;;;5075106;28;20024;-48
2023/05/05 09:29:15;;;;;;;6.72;3.83;;;26.40;92.60;;;;;;5094934;28;20020;-48
2023/05/05 09:31:41;;;;;;;11.82;4.20;;;26.50;92.70;;;;;;5084738;28;20028;-50
2023/05/05 09:34:16;;;;;;;5.40;3.92;;;26.50;92.30;;;;;;5074348;28;20472;-49
2023/05/05 09:36:43;;;;;;;3.95;3.63;;;26.20;92.00;;;;;;5074148;28;20035;-47
2023/05/05 09:39:09;;;;;;;8.52;4.07;;;25.90;92.20;;;;;;5056126;28;20407;-45
2023/05/05 09:41:42;;;;;;;4.82;3.53;;;25.90;92.50;;;;;;5074119;28;20036;-46
2023/05/05 09:44:08;;;;;;;3.15;2.88;;;25.90;92.50;;;;;;5073231;28;20159;-48
2023/05/05 09:46:33;;;;;;;6.32;3.60;;;26.00;92.70;;;;;;5073797;28;20099;-44
2023/05/05 09:49:14;;;;;;;5.45;3.80;;;26.20;92.30;;;;;;5074216;28;20025;-54
2023/05/05 09:51:40;;;;;;;4.63;3.53;;;26.20;92.10;;;;;;5092909;28;20021;-57
2023/05/05 09:54:06;;;;;;;4.03;2.90;;;26.30;92.40;;;;;;5100085;28;20042;-56
2023/05/05 09:56:41;;;;;;;5.72;2.85;;;26.10;91.70;;;;;;5080322;28;20020;-57
2023/05/05 09:59:10;;;;;;;4.05;2.45;;;26.00;91.40;;;;;;5061455;28;20025;-54
2023/05/05 10:01:37;;;;;;;6.57;2.35;;;25.90;91.70;;;;;;5079421;28;20037;-56
2023/05/05 10:04:02;;;;;;;4.18;2.60;;;25.80;91.60;;;;;;5059498;28;20084;-53
2023/05/05 10:06:45;;;;;;;14.63;4.13;;;25.70;91.80;;;;;;5046595;28;20083;-55
2023/05/05 10:09:11;;;;;;;3.88;2.80;;;25.60;91.80;;;;;;5079129;28;20030;-57
2023/05/05 10:11:40;;;;;;;2.83;2.60;;;25.50;92.10;;;;;;5078270;28;20035;-57
2023/05/05 10:14:07;;;;;;;4.55;2.70;;;25.40;92.50;;;;;;5079226;28;20086;-57
2023/05/05 10:16:34;;;;;;;7.38;2.63;;;25.40;93.20;;;;;;5079294;28;20035;-57
2023/05/05 10:19:01;;;;;;;6.57;2.03;;;25.30;92.20;;;;;;5075447;28;20220;-54
2023/05/05 10:21:32;;;;;;;2.10;1.98;;;25.10;92.20;;;;;;5083945;28;20024;-55
2023/05/05 10:24:09;;;;;;;5.00;1.48;;;25.00;91.50;;;;;;5065404;28;20075;-57
2023/05/05 10:26:42;;;;;;;4.63;2.38;;;24.90;91.50;;;;;;5067357;28;20024;-54
2023/05/05 10:29:36;;;;;;;2.55;1.92;;;25.00;93.10;;;;;;5069133;28;20024;-54
2023/05/05 10:32:16;;;;;;;6.50;1.65;;;24.80;91.20;;;;;;5068632;28;20032;-55
2023/05/05 10:35:02;;;;;;;2.78;1.45;;;24.70;91.80;;;;;;5069561;28;20048;-52
2023/05/05 10:37:28;;;;;;;1.40;1.30;;;24.70;90.90;;;;;;5088183;28;20373;-57
2023/05/05 10:39:56;;;;;;;3.75;1.20;;;24.60;91.00;;;;;;5085386;28;20039;-55
2023/05/05 10:42:22;;;;;;;2.40;2.15;;;24.60;90.40;;;;;;5084416;28;20017;-56
2023/05/05 10:44:48;;;;;;;16.10;12.98;;;24.50;90.10;;;;;;5084057;28;20046;-53
2023/05/05 10:47:19;;;;;;;42.13;29.70;;;24.50;89.60;;;;;;5084118;28;20039;-55
2023/05/05 10:50:00;;;;;;;2.25;2.05;;;24.50;89.20;;;;;;5065273;28;20020;-57
2023/05/05 10:52:44;;;;;;;3.90;0.90;;;24.50;88.20;;;;;;5083613;28;20099;-54
2023/05/05 10:55:33;;;;;;;0.80;0.80;;;24.50;85.40;;;;;;5063351;28;20039;-52
2023/05/05 10:57:59;;;;;;;1.13;0.80;;;24.60;84.30;;;;;;5081494;28;20017;-57
2023/05/05 11:00:36;;;;;;;0.75;0.75;;;24.50;83.90;;;;;;5081179;28;20047;-55
2023/05/05 11:03:18;;;;;;;1.95;0.85;;;24.60;84.80;;;;;;5081278;28;20365;-58
2023/05/05 11:06:07;;;;;;;5.10;0.82;;;24.70;82.90;;;;;;5083100;28;20059;-60
2023/05/05 11:08:34;;;;;;;1.42;1.33;;;24.60;82.80;;;;;;5082051;28;20160;-56
2023/05/05 11:11:01;;;;;;;0.60;0.60;;;24.60;84.50;;;;;;5065075;28;20120;-59
2023/05/05 11:13:28;;;;;;;1.38;0.80;;;24.80;85.70;;;;;;5082986;28;20107;-57
2023/05/05 11:15:58;;;;;;;3.13;0.55;;;24.90;85.10;;;;;;5083229;28;20025;-53
2023/05/05 11:18:29;;;;;;;2.97;0.80;;;25.00;84.90;;;;;;5065262;28;20020;-58
2023/05/05 11:21:00;;;;;;;0.98;0.88;;;25.00;85.50;;;;;;5083464;28;20024;-56
2023/05/05 11:23:27;;;;;;;3.40;0.80;;;25.00;83.80;;;;;;5083256;28;20034;-58
2023/05/05 11:25:53;;;;;;;0.70;0.65;;;25.00;85.00;;;;;;5083028;28;20024;-60
2023/05/05 11:28:23;;;;;;;0.93;0.85;;;25.00;85.70;;;;;;5064951;28;20035;-59
2023/05/05 11:30:55;;;;;;;2.95;0.90;;;24.90;84.80;;;;;;5082026;28;20435;-55
2023/05/05 11:33:27;;;;;;;0.95;0.65;;;24.90;83.50;;;;;;5077800;28;20028;-53
2023/05/05 11:35:58;;;;;;;2.08;0.80;;;24.80;83.10;;;;;;5085262;28;20028;-57
2023/05/05 11:38:48;;;;;;;0.85;0.50;;;24.60;83.40;;;;;;5102571;28;20043;-58
2023/05/05 11:41:32;;;;;;;1.05;0.82;;;24.60;82.40;;;;;;5085484;28;20456;-53
2023/05/05 11:44:15;;;;;;;1.27;0.80;;;24.60;84.10;;;;;;5068853;28;20074;-56
2023/05/05 11:46:50;;;;;;;1.23;0.90;;;24.50;83.70;;;;;;5083071;28;20066;-56
2023/05/05 11:49:25;;;;;;;1.58;0.80;;;24.40;83.90;;;;;;5064831;28;20021;-57
2023/05/05 11:52:17;;;;;;;1.35;0.75;;;24.40;84.50;;;;;;5083740;28;20021;-58
2023/05/05 11:54:47;;;;;;;1.70;0.93;;;24.40;84.60;;;;;;5079088;28;20049;-59
2023/05/05 11:57:14;;;;;;;2.30;0.75;;;24.30;83.80;;;;;;5083213;28;20017;-56
2023/05/05 11:59:55;;;;;;;0.85;0.80;;;24.20;84.00;;;;;;5087025;22;20102;-51
2023/05/05 12:02:21;;;;;;;2.05;0.68;;;24.30;84.80;;;;;;5071208;28;20477;-46
2023/05/05 12:04:48;;;;;;;2.22;0.88;;;24.30;86.10;;;;;;5057139;28;20037;-48
2023/05/05 12:07:18;;;;;;;7.82;4.88;;;24.40;85.50;;;;;;5051613;28;20032;-49
2023/05/05 12:09:44;;;;;;;0.80;0.80;;;24.30;82.50;;;;;;5052534;28;20082;-51
2023/05/05 12:12:10;;;;;;;0.82;0.82;;;24.20;82.80;;;;;;5052528;28;20055;-52
2023/05/05 12:14:45;;;;;;;1.48;1.08;;;24.20;84.50;;;;;;5072061;28;20036;-49
2023/05/05 12:17:11;;;;;;;0.73;0.63;;;24.20;85.00;;;;;;5072307;28;20025;-50
2023/05/05 12:19:44;;;;;;;1.60;0.80;;;24.30;83.90;;;;;;5053140;28;20716;-51
2023/05/05 12:22:16;;;;;;;0.80;0.68;;;24.40;82.50;;;;;;5051318;28;20040;-51
2023/05/05 12:24:41;;;;;;;1.02;0.82;;;24.30;82.90;;;;;;5051129;28;20135;-47
2023/05/05 12:27:09;;;;;;;4.32;0.85;;;24.20;84.00;;;;;;5051178;28;20025;-52
2023/05/05 12:29:35;;;;;;;2.05;0.60;;;24.20;82.60;;;;;;5066155;28;20311;-50
2023/05/05 12:32:00;;;;;;;0.90;0.80;;;24.20;81.70;;;;;;5060730;28;20187;-51
2023/05/05 12:34:26;;;;;;;2.65;0.90;;;24.20;83.10;;;;;;5075549;28;20024;-47
2023/05/05 12:36:52;;;;;;;3.47;0.70;;;24.30;83.20;;;;;;5078785;28;20056;-51
2023/05/05 12:39:17;;;;;;;2.38;0.80;;;24.40;80.90;;;;;;5070084;28;20617;-50
2023/05/05 12:41:43;;;;;;;1.10;0.80;;;24.40;79.80;;;;;;5090850;28;20040;-52
2023/05/05 12:44:09;;;;;;;2.95;0.65;;;24.50;78.60;;;;;;5087478;28;20033;-48
2023/05/05 12:46:45;;;;;;;1.98;0.60;;;24.50;78.00;;;;;;5070792;28;20021;-51
2023/05/05 12:49:10;;;;;;;1.15;0.45;;;24.60;79.10;;;;;;5068168;28;20025;-49
2023/05/05 12:51:36;;;;;;;1.67;0.60;;;24.60;77.60;;;;;;5080217;28;20380;-53
2023/05/05 12:54:09;;;;;;;0.93;0.60;;;24.70;76.30;;;;;;5073091;28;20475;-50